Orbital elements of CZ-4 DEB
| Launched | 2 September 1990 |
| Flight ended | – |
| Launch site | Taiyuan Space Center, PRC |
| Owner | People's Republic of China |
| NORAD ID | 37625 |
| Date fetched |
Epoch osculation |
Inc. [°] |
Ecc. | RA asc node [hr] |
Arg Peri. [°] |
Mean anom [°] |
Mean motion [rev/day] |
Abs. mag |
| Date fetched |
Epoch osculation |
Inc. [°] |
Ecc. | RA asc node [hr] |
Arg Peri. [°] |
Mean anom [°] |
Mean motion [rev/day] |
Abs. mag |
| 2026 May 04 17:57 | 2026 Apr 28 06:28:29 | 98.3493 | 0.00030 | 8.3897 | 130.1571 | 229.9890 | 14.60812 | – |
| 2026 May 03 17:57 | 2026 Apr 28 06:28:29 | 98.3493 | 0.00030 | 8.3897 | 130.1571 | 229.9890 | 14.60812 | – |
| 2026 May 02 17:57 | 2026 Apr 28 06:28:29 | 98.3493 | 0.00030 | 8.3897 | 130.1571 | 229.9890 | 14.60812 | – |
| 2026 May 01 17:56 | 2026 Apr 28 06:28:29 | 98.3493 | 0.00030 | 8.3897 | 130.1571 | 229.9890 | 14.60812 | – |
| 2026 Apr 30 17:56 | 2026 Apr 28 06:28:29 | 98.3493 | 0.00030 | 8.3897 | 130.1571 | 229.9890 | 14.60812 | – |
| 2026 Apr 29 17:57 | 2026 Apr 21 06:47:34 | 98.3510 | 0.00025 | 7.9201 | 139.4796 | 229.9890 | 14.60812 | – |
| 2026 Apr 28 17:56 | 2026 Apr 21 06:47:34 | 98.3510 | 0.00025 | 7.9201 | 139.4796 | 229.9890 | 14.60812 | – |
| 2026 Apr 27 17:58 | 2026 Apr 21 06:47:34 | 98.3510 | 0.00025 | 7.9201 | 139.4796 | 229.9890 | 14.60812 | – |
| 2026 Apr 26 17:58 | 2026 Apr 21 06:47:34 | 98.3510 | 0.00025 | 7.9201 | 139.4796 | 229.9890 | 14.60812 | – |
| 2026 Apr 25 17:58 | 2026 Apr 21 06:47:34 | 98.3510 | 0.00025 | 7.9201 | 139.4796 | 229.9890 | 14.60812 | – |
| 2026 Apr 24 17:59 | 2026 Apr 21 06:47:34 | 98.3510 | 0.00025 | 7.9201 | 139.4796 | 229.9890 | 14.60812 | – |
| 2026 Apr 23 17:57 | 2026 Apr 15 17:37:43 | 98.3504 | 0.00020 | 7.5470 | 146.8386 | 229.9890 | 14.60812 | – |
| 2026 Apr 22 17:57 | 2026 Apr 15 17:37:43 | 98.3504 | 0.00020 | 7.5470 | 146.8386 | 229.9890 | 14.60812 | – |
| 2026 Apr 21 17:57 | 2026 Apr 15 17:37:43 | 98.3504 | 0.00020 | 7.5470 | 146.8386 | 229.9890 | 14.60812 | – |
| 2026 Apr 20 17:57 | 2026 Apr 15 17:37:43 | 98.3504 | 0.00020 | 7.5470 | 146.8386 | 229.9890 | 14.60812 | – |
| 2026 Apr 19 17:58 | 2026 Apr 15 17:37:43 | 98.3504 | 0.00020 | 7.5470 | 146.8386 | 229.9890 | 14.60812 | – |
| 2026 Apr 18 17:56 | 2026 Apr 11 18:16:28 | 98.3503 | 0.00017 | 7.2799 | 152.6010 | 229.9890 | 14.60812 | – |
| 2026 Apr 16 17:57 | 2026 Apr 11 18:16:28 | 98.3503 | 0.00017 | 7.2799 | 152.6010 | 229.9890 | 14.60812 | – |
| 2026 Apr 14 17:57 | 2026 Apr 11 18:16:28 | 98.3503 | 0.00017 | 7.2799 | 152.6010 | 229.9890 | 14.60812 | – |
| 2026 Apr 13 17:57 | 2026 Apr 11 18:16:28 | 98.3503 | 0.00017 | 7.2799 | 152.6010 | 229.9890 | 14.60812 | – |
| 2026 Apr 12 17:57 | 2026 Apr 06 23:11:20 | 98.3508 | 0.00012 | 6.9576 | 158.7355 | 229.9890 | 14.60812 | – |
| 2026 Apr 11 17:57 | 2026 Apr 06 23:11:20 | 98.3508 | 0.00012 | 6.9576 | 158.7355 | 229.9890 | 14.60812 | – |
| 2026 Apr 10 17:58 | 2026 Apr 06 23:11:20 | 98.3508 | 0.00012 | 6.9576 | 158.7355 | 229.9890 | 14.60812 | – |
| 2026 Apr 09 18:01 | 2026 Apr 06 23:11:20 | 98.3508 | 0.00012 | 6.9576 | 158.7355 | 229.9890 | 14.60812 | – |
| 2026 Apr 08 17:57 | 2026 Apr 06 23:11:20 | 98.3508 | 0.00012 | 6.9576 | 158.7355 | 229.9890 | 14.60812 | – |
| 2026 Apr 07 17:57 | 2026 Apr 01 18:13:58 | 98.3514 | 0.00005 | 6.6077 | 159.7630 | 229.9890 | 14.60812 | – |